sensor_id;sensor_type;location;lat;lon;timestamp;P1;durP1;ratioP1;P2;durP2;ratioP2
48743;SDS011;34538;48.836;9.174;2023-04-25T00:00:15;2.78;;;1.48;;
48743;SDS011;34538;48.836;9.174;2023-04-25T00:02:42;1.42;;;1.23;;
48743;SDS011;34538;48.836;9.174;2023-04-25T00:05:09;1.85;;;1.33;;
48743;SDS011;34538;48.836;9.174;2023-04-25T00:07:37;2.50;;;1.38;;
48743;SDS011;34538;48.836;9.174;2023-04-25T00:10:05;2.17;;;1.58;;
48743;SDS011;34538;48.836;9.174;2023-04-25T00:12:33;1.98;;;1.33;;
48743;SDS011;34538;48.836;9.174;2023-04-25T00:15:01;2.67;;;1.30;;
48743;SDS011;34538;48.836;9.174;2023-04-25T00:17:27;2.80;;;1.30;;
48743;SDS011;34538;48.836;9.174;2023-04-25T00:19:54;2.85;;;1.60;;
48743;SDS011;34538;48.836;9.174;2023-04-25T00:22:23;3.42;;;1.48;;
48743;SDS011;34538;48.836;9.174;2023-04-25T00:24:51;3.05;;;1.60;;
48743;SDS011;34538;48.836;9.174;2023-04-25T00:27:21;2.30;;;1.48;;
48743;SDS011;34538;48.836;9.174;2023-04-25T00:29:48;1.73;;;1.30;;
48743;SDS011;34538;48.836;9.174;2023-04-25T00:32:15;2.10;;;1.20;;
48743;SDS011;34538;48.836;9.174;2023-04-25T00:34:41;2.67;;;1.23;;
48743;SDS011;34538;48.836;9.174;2023-04-25T00:37:08;2.00;;;1.40;;
48743;SDS011;34538;48.836;9.174;2023-04-25T00:39:35;3.42;;;1.15;;
48743;SDS011;34538;48.836;9.174;2023-04-25T00:42:03;2.25;;;1.08;;
48743;SDS011;34538;48.836;9.174;2023-04-25T00:44:31;2.15;;;1.20;;
48743;SDS011;34538;48.836;9.174;2023-04-25T00:46:58;2.08;;;1.17;;
48743;SDS011;34538;48.836;9.174;2023-04-25T00:49:26;3.40;;;1.50;;
48743;SDS011;34538;48.836;9.174;2023-04-25T00:51:53;1.90;;;1.45;;
48743;SDS011;34538;48.836;9.174;2023-04-25T00:54:21;2.40;;;1.17;;
48743;SDS011;34538;48.836;9.174;2023-04-25T00:56:48;1.73;;;1.10;;
48743;SDS011;34538;48.836;9.174;2023-04-25T00:59:16;2.03;;;1.42;;
48743;SDS011;34538;48.836;9.174;2023-04-25T01:01:44;2.05;;;1.42;;
48743;SDS011;34538;48.836;9.174;2023-04-25T01:04:11;4.03;;;1.30;;
48743;SDS011;34538;48.836;9.174;2023-04-25T01:06:40;3.28;;;1.48;;
48743;SDS011;34538;48.836;9.174;2023-04-25T01:09:07;1.73;;;1.25;;
48743;SDS011;34538;48.836;9.174;2023-04-25T01:11:34;1.83;;;1.35;;
48743;SDS011;34538;48.836;9.174;2023-04-25T01:14:01;2.97;;;1.52;;
48743;SDS011;34538;48.836;9.174;2023-04-25T01:16:29;2.20;;;1.48;;
48743;SDS011;34538;48.836;9.174;2023-04-25T01:18:58;2.85;;;1.30;;
48743;SDS011;34538;48.836;9.174;2023-04-25T01:21:26;1.52;;;1.30;;
48743;SDS011;34538;48.836;9.174;2023-04-25T01:23:55;5.20;;;1.50;;
48743;SDS011;34538;48.836;9.174;2023-04-25T01:26:22;1.92;;;1.52;;
48743;SDS011;34538;48.836;9.174;2023-04-25T01:28:50;2.15;;;1.35;;
48743;SDS011;34538;48.836;9.174;2023-04-25T01:31:17;2.00;;;1.33;;
48743;SDS011;34538;48.836;9.174;2023-04-25T01:33:45;4.40;;;1.67;;
48743;SDS011;34538;48.836;9.174;2023-04-25T01:36:12;1.77;;;1.40;;
48743;SDS011;34538;48.836;9.174;2023-04-25T01:38:41;1.88;;;1.20;;
48743;SDS011;34538;48.836;9.174;2023-04-25T01:41:09;3.13;;;1.42;;
48743;SDS011;34538;48.836;9.174;2023-04-25T01:43:36;1.40;;;1.30;;
48743;SDS011;34538;48.836;9.174;2023-04-25T01:46:03;2.33;;;1.40;;
48743;SDS011;34538;48.836;9.174;2023-04-25T01:48:30;4.38;;;1.38;;
48743;SDS011;34538;48.836;9.174;2023-04-25T01:50:57;2.30;;;1.55;;
48743;SDS011;34538;48.836;9.174;2023-04-25T01:53:24;5.20;;;1.77;;
48743;SDS011;34538;48.836;9.174;2023-04-25T01:55:53;2.88;;;1.70;;
48743;SDS011;34538;48.836;9.174;2023-04-25T01:58:21;3.00;;;1.70;;
48743;SDS011;34538;48.836;9.174;2023-04-25T02:01:04;2.60;;;1.77;;
48743;SDS011;34538;48.836;9.174;2023-04-25T02:03:38;2.40;;;1.52;;
48743;SDS011;34538;48.836;9.174;2023-04-25T02:06:10;2.38;;;1.83;;
48743;SDS011;34538;48.836;9.174;2023-04-25T02:08:41;3.33;;;1.80;;
48743;SDS011;34538;48.836;9.174;2023-04-25T02:11:12;4.30;;;1.65;;
48743;SDS011;34538;48.836;9.174;2023-04-25T02:13:59;3.05;;;1.95;;
48743;SDS011;34538;48.836;9.174;2023-04-25T02:16:39;4.65;;;1.85;;
48743;SDS011;34538;48.836;9.174;2023-04-25T02:19:08;3.72;;;1.90;;
48743;SDS011;34538;48.836;9.174;2023-04-25T02:21:36;3.65;;;2.17;;
48743;SDS011;34538;48.836;9.174;2023-04-25T02:24:03;4.28;;;1.98;;
48743;SDS011;34538;48.836;9.174;2023-04-25T02:26:34;3.95;;;1.95;;
48743;SDS011;34538;48.836;9.174;2023-04-25T02:29:01;4.03;;;2.22;;
48743;SDS011;34538;48.836;9.174;2023-04-25T02:31:28;4.45;;;2.22;;
48743;SDS011;34538;48.836;9.174;2023-04-25T02:33:56;3.40;;;1.92;;
48743;SDS011;34538;48.836;9.174;2023-04-25T02:36:23;3.28;;;2.03;;
48743;SDS011;34538;48.836;9.174;2023-04-25T02:38:51;5.45;;;2.40;;
48743;SDS011;34538;48.836;9.174;2023-04-25T02:41:19;4.53;;;2.05;;
48743;SDS011;34538;48.836;9.174;2023-04-25T02:43:48;3.45;;;2.17;;
48743;SDS011;34538;48.836;9.174;2023-04-25T02:46:17;4.78;;;1.95;;
48743;SDS011;34538;48.836;9.174;2023-04-25T02:48:45;3.42;;;1.98;;
48743;SDS011;34538;48.836;9.174;2023-04-25T02:51:12;4.18;;;2.30;;
48743;SDS011;34538;48.836;9.174;2023-04-25T02:53:41;3.65;;;2.33;;
48743;SDS011;34538;48.836;9.174;2023-04-25T02:56:08;2.83;;;1.90;;
48743;SDS011;34538;48.836;9.174;2023-04-25T02:58:35;4.07;;;1.83;;
48743;SDS011;34538;48.836;9.174;2023-04-25T03:01:03;3.78;;;2.00;;
48743;SDS011;34538;48.836;9.174;2023-04-25T03:03:30;4.55;;;2.00;;
48743;SDS011;34538;48.836;9.174;2023-04-25T03:05:57;4.15;;;1.92;;
48743;SDS011;34538;48.836;9.174;2023-04-25T03:08:29;3.63;;;2.15;;
48743;SDS011;34538;48.836;9.174;2023-04-25T03:10:59;2.83;;;2.22;;
48743;SDS011;34538;48.836;9.174;2023-04-25T03:13:26;3.42;;;2.00;;
48743;SDS011;34538;48.836;9.174;2023-04-25T03:15:55;3.53;;;2.05;;
48743;SDS011;34538;48.836;9.174;2023-04-25T03:18:23;3.05;;;2.10;;
48743;SDS011;34538;48.836;9.174;2023-04-25T03:20:50;7.13;;;2.30;;
48743;SDS011;34538;48.836;9.174;2023-04-25T03:23:17;3.90;;;2.38;;
48743;SDS011;34538;48.836;9.174;2023-04-25T03:25:44;3.08;;;2.20;;
48743;SDS011;34538;48.836;9.174;2023-04-25T03:28:11;3.13;;;2.30;;
48743;SDS011;34538;48.836;9.174;2023-04-25T03:30:38;3.95;;;2.67;;
48743;SDS011;34538;48.836;9.174;2023-04-25T03:33:05;3.72;;;2.10;;
48743;SDS011;34538;48.836;9.174;2023-04-25T03:35:33;3.83;;;2.80;;
48743;SDS011;34538;48.836;9.174;2023-04-25T03:38:00;5.30;;;2.40;;
48743;SDS011;34538;48.836;9.174;2023-04-25T03:40:32;6.65;;;2.42;;
48743;SDS011;34538;48.836;9.174;2023-04-25T03:43:25;3.38;;;2.22;;
48743;SDS011;34538;48.836;9.174;2023-04-25T03:46:01;4.85;;;2.45;;
48743;SDS011;34538;48.836;9.174;2023-04-25T03:48:28;4.10;;;2.40;;
48743;SDS011;34538;48.836;9.174;2023-04-25T03:50:57;3.97;;;2.47;;
48743;SDS011;34538;48.836;9.174;2023-04-25T03:53:23;4.63;;;2.28;;
48743;SDS011;34538;48.836;9.174;2023-04-25T03:56:09;4.07;;;2.40;;
48743;SDS011;34538;48.836;9.174;2023-04-25T03:58:38;5.28;;;2.85;;
48743;SDS011;34538;48.836;9.174;2023-04-25T04:01:05;4.57;;;2.50;;
48743;SDS011;34538;48.836;9.174;2023-04-25T04:03:34;3.85;;;2.30;;
48743;SDS011;34538;48.836;9.174;2023-04-25T04:06:03;2.58;;;1.88;;
48743;SDS011;34538;48.836;9.174;2023-04-25T04:08:34;6.25;;;2.42;;
48743;SDS011;34538;48.836;9.174;2023-04-25T04:11:02;5.47;;;2.45;;
48743;SDS011;34538;48.836;9.174;2023-04-25T04:13:29;7.72;;;2.40;;
48743;SDS011;34538;48.836;9.174;2023-04-25T04:15:56;4.35;;;2.30;;
48743;SDS011;34538;48.836;9.174;2023-04-25T04:18:23;3.10;;;2.10;;
48743;SDS011;34538;48.836;9.174;2023-04-25T04:20:50;5.70;;;2.58;;
48743;SDS011;34538;48.836;9.174;2023-04-25T04:23:18;5.65;;;2.22;;
48743;SDS011;34538;48.836;9.174;2023-04-25T04:25:46;4.20;;;2.65;;
48743;SDS011;34538;48.836;9.174;2023-04-25T04:28:26;3.85;;;2.28;;
48743;SDS011;34538;48.836;9.174;2023-04-25T04:30:57;3.92;;;2.70;;
48743;SDS011;34538;48.836;9.174;2023-04-25T04:33:24;5.00;;;2.38;;
48743;SDS011;34538;48.836;9.174;2023-04-25T04:35:56;6.43;;;2.72;;
48743;SDS011;34538;48.836;9.174;2023-04-25T04:38:25;4.68;;;3.00;;
48743;SDS011;34538;48.836;9.174;2023-04-25T04:40:55;3.47;;;2.50;;
48743;SDS011;34538;48.836;9.174;2023-04-25T04:43:45;3.65;;;2.58;;
48743;SDS011;34538;48.836;9.174;2023-04-25T04:46:50;5.25;;;2.80;;
48743;SDS011;34538;48.836;9.174;2023-04-25T04:49:29;5.57;;;2.70;;
48743;SDS011;34538;48.836;9.174;2023-04-25T04:52:19;4.72;;;2.67;;
48743;SDS011;34538;48.836;9.174;2023-04-25T04:55:25;5.25;;;2.80;;
48743;SDS011;34538;48.836;9.174;2023-04-25T04:58:04;3.78;;;2.47;;
48743;SDS011;34538;48.836;9.174;2023-04-25T05:00:46;5.10;;;3.00;;
48743;SDS011;34538;48.836;9.174;2023-04-25T05:03:51;4.75;;;2.85;;
48743;SDS011;34538;48.836;9.174;2023-04-25T05:06:34;5.70;;;3.10;;
48743;SDS011;34538;48.836;9.174;2023-04-25T05:09:17;5.25;;;2.85;;
48743;SDS011;34538;48.836;9.174;2023-04-25T05:12:08;5.68;;;3.13;;
48743;SDS011;34538;48.836;9.174;2023-04-25T05:15:14;5.20;;;2.78;;
48743;SDS011;34538;48.836;9.174;2023-04-25T05:18:16;4.72;;;2.78;;
48743;SDS011;34538;48.836;9.174;2023-04-25T05:20:59;6.43;;;3.05;;
48743;SDS011;34538;48.836;9.174;2023-04-25T05:23:44;5.72;;;2.92;;
48743;SDS011;34538;48.836;9.174;2023-04-25T05:26:31;4.85;;;3.20;;
48743;SDS011;34538;48.836;9.174;2023-04-25T05:29:26;7.30;;;3.60;;
48743;SDS011;34538;48.836;9.174;2023-04-25T05:32:01;5.93;;;3.20;;
48743;SDS011;34538;48.836;9.174;2023-04-25T05:34:29;5.60;;;3.30;;
48743;SDS011;34538;48.836;9.174;2023-04-25T05:37:00;4.65;;;2.95;;
48743;SDS011;34538;48.836;9.174;2023-04-25T05:39:28;7.47;;;3.58;;
48743;SDS011;34538;48.836;9.174;2023-04-25T05:42:16;6.22;;;3.65;;
48743;SDS011;34538;48.836;9.174;2023-04-25T05:45:01;5.82;;;3.53;;
48743;SDS011;34538;48.836;9.174;2023-04-25T05:48:06;7.15;;;3.90;;
48743;SDS011;34538;48.836;9.174;2023-04-25T05:53:51;6.78;;;3.17;;
48743;SDS011;34538;48.836;9.174;2023-04-25T05:56:18;6.35;;;3.90;;
48743;SDS011;34538;48.836;9.174;2023-04-25T05:58:49;5.55;;;3.45;;
48743;SDS011;34538;48.836;9.174;2023-04-25T06:01:17;6.63;;;3.58;;
48743;SDS011;34538;48.836;9.174;2023-04-25T06:03:44;7.55;;;3.75;;
48743;SDS011;34538;48.836;9.174;2023-04-25T06:06:11;5.80;;;3.50;;
48743;SDS011;34538;48.836;9.174;2023-04-25T06:08:38;6.57;;;3.92;;
48743;SDS011;34538;48.836;9.174;2023-04-25T06:11:05;6.80;;;3.53;;
48743;SDS011;34538;48.836;9.174;2023-04-25T06:13:32;6.35;;;3.40;;
48743;SDS011;34538;48.836;9.174;2023-04-25T06:16:00;4.85;;;3.05;;
48743;SDS011;34538;48.836;9.174;2023-04-25T06:18:28;5.03;;;3.30;;
48743;SDS011;34538;48.836;9.174;2023-04-25T06:20:55;5.30;;;3.53;;
48743;SDS011;34538;48.836;9.174;2023-04-25T06:23:23;5.65;;;3.25;;
48743;SDS011;34538;48.836;9.174;2023-04-25T06:25:54;6.40;;;3.38;;
48743;SDS011;34538;48.836;9.174;2023-04-25T06:28:22;5.25;;;3.35;;
48743;SDS011;34538;48.836;9.174;2023-04-25T06:30:49;5.53;;;3.55;;
48743;SDS011;34538;48.836;9.174;2023-04-25T06:33:18;4.13;;;2.80;;
48743;SDS011;34538;48.836;9.174;2023-04-25T06:35:47;4.68;;;3.40;;
48743;SDS011;34538;48.836;9.174;2023-04-25T06:38:17;4.90;;;3.10;;
48743;SDS011;34538;48.836;9.174;2023-04-25T06:40:47;4.25;;;2.95;;
48743;SDS011;34538;48.836;9.174;2023-04-25T06:43:15;5.45;;;3.05;;
48743;SDS011;34538;48.836;9.174;2023-04-25T06:46:11;4.53;;;2.80;;
48743;SDS011;34538;48.836;9.174;2023-04-25T06:48:43;5.30;;;3.28;;
48743;SDS011;34538;48.836;9.174;2023-04-25T06:51:11;5.38;;;3.25;;
48743;SDS011;34538;48.836;9.174;2023-04-25T06:53:39;4.60;;;2.97;;
48743;SDS011;34538;48.836;9.174;2023-04-25T06:56:10;5.75;;;3.28;;
48743;SDS011;34538;48.836;9.174;2023-04-25T06:58:48;4.25;;;3.00;;
48743;SDS011;34538;48.836;9.174;2023-04-25T07:01:23;5.63;;;3.42;;
48743;SDS011;34538;48.836;9.174;2023-04-25T07:03:50;4.07;;;2.95;;
48743;SDS011;34538;48.836;9.174;2023-04-25T07:06:19;5.05;;;3.45;;
48743;SDS011;34538;48.836;9.174;2023-04-25T07:08:46;5.55;;;3.53;;
48743;SDS011;34538;48.836;9.174;2023-04-25T07:11:13;4.32;;;2.75;;
48743;SDS011;34538;48.836;9.174;2023-04-25T07:13:40;4.95;;;3.00;;
48743;SDS011;34538;48.836;9.174;2023-04-25T07:16:07;4.38;;;2.83;;
48743;SDS011;34538;48.836;9.174;2023-04-25T07:18:35;4.78;;;2.88;;
48743;SDS011;34538;48.836;9.174;2023-04-25T07:21:02;4.97;;;3.15;;
48743;SDS011;34538;48.836;9.174;2023-04-25T07:23:33;5.38;;;3.33;;
48743;SDS011;34538;48.836;9.174;2023-04-25T07:26:06;5.40;;;3.70;;
48743;SDS011;34538;48.836;9.174;2023-04-25T07:28:34;7.00;;;3.85;;
48743;SDS011;34538;48.836;9.174;2023-04-25T07:31:01;6.97;;;3.95;;
48743;SDS011;34538;48.836;9.174;2023-04-25T07:33:28;6.22;;;3.28;;
48743;SDS011;34538;48.836;9.174;2023-04-25T07:35:55;6.18;;;3.45;;
48743;SDS011;34538;48.836;9.174;2023-04-25T07:38:22;5.75;;;3.30;;
48743;SDS011;34538;48.836;9.174;2023-04-25T07:40:51;7.47;;;4.25;;
48743;SDS011;34538;48.836;9.174;2023-04-25T07:43:18;8.15;;;3.90;;
48743;SDS011;34538;48.836;9.174;2023-04-25T07:45:52;7.15;;;3.65;;
48743;SDS011;34538;48.836;9.174;2023-04-25T07:48:20;6.03;;;3.90;;
48743;SDS011;34538;48.836;9.174;2023-04-25T07:50:49;6.18;;;3.90;;
48743;SDS011;34538;48.836;9.174;2023-04-25T07:53:17;7.15;;;3.92;;
48743;SDS011;34538;48.836;9.174;2023-04-25T07:55:51;4.65;;;3.25;;
48743;SDS011;34538;48.836;9.174;2023-04-25T07:58:20;8.88;;;4.40;;
48743;SDS011;34538;48.836;9.174;2023-04-25T08:00:49;5.93;;;3.83;;
48743;SDS011;34538;48.836;9.174;2023-04-25T08:03:52;5.82;;;3.70;;
48743;SDS011;34538;48.836;9.174;2023-04-25T08:06:30;6.88;;;3.85;;
48743;SDS011;34538;48.836;9.174;2023-04-25T08:09:06;6.13;;;3.90;;
48743;SDS011;34538;48.836;9.174;2023-04-25T08:11:38;7.82;;;4.10;;
48743;SDS011;34538;48.836;9.174;2023-04-25T08:14:08;6.28;;;3.83;;
48743;SDS011;34538;48.836;9.174;2023-04-25T08:16:36;7.03;;;3.70;;
48743;SDS011;34538;48.836;9.174;2023-04-25T08:19:03;6.13;;;3.88;;
48743;SDS011;34538;48.836;9.174;2023-04-25T08:21:34;8.73;;;4.43;;
48743;SDS011;34538;48.836;9.174;2023-04-25T08:24:04;10.73;;;4.10;;
48743;SDS011;34538;48.836;9.174;2023-04-25T08:26:35;6.93;;;3.70;;
48743;SDS011;34538;48.836;9.174;2023-04-25T08:29:06;6.00;;;4.03;;
48743;SDS011;34538;48.836;9.174;2023-04-25T08:31:36;5.57;;;3.35;;
48743;SDS011;34538;48.836;9.174;2023-04-25T08:34:04;6.32;;;3.38;;
48743;SDS011;34538;48.836;9.174;2023-04-25T08:36:50;6.53;;;3.47;;
48743;SDS011;34538;48.836;9.174;2023-04-25T08:39:26;5.15;;;3.45;;
48743;SDS011;34538;48.836;9.174;2023-04-25T08:42:13;5.70;;;3.85;;
48743;SDS011;34538;48.836;9.174;2023-04-25T08:44:42;8.10;;;4.22;;
48743;SDS011;34538;48.836;9.174;2023-04-25T08:47:11;7.45;;;4.05;;
48743;SDS011;34538;48.836;9.174;2023-04-25T08:49:48;7.03;;;4.25;;
48743;SDS011;34538;48.836;9.174;2023-04-25T08:52:19;7.53;;;4.40;;
48743;SDS011;34538;48.836;9.174;2023-04-25T08:54:48;7.53;;;4.43;;
48743;SDS011;34538;48.836;9.174;2023-04-25T08:57:17;9.57;;;5.07;;
48743;SDS011;34538;48.836;9.174;2023-04-25T08:59:46;8.48;;;4.80;;
48743;SDS011;34538;48.836;9.174;2023-04-25T09:02:16;6.78;;;4.50;;
48743;SDS011;34538;48.836;9.174;2023-04-25T09:04:48;7.65;;;5.00;;
48743;SDS011;34538;48.836;9.174;2023-04-25T09:07:15;10.25;;;5.05;;
48743;SDS011;34538;48.836;9.174;2023-04-25T09:09:46;9.20;;;5.50;;
48743;SDS011;34538;48.836;9.174;2023-04-25T09:12:16;8.27;;;5.15;;
48743;SDS011;34538;48.836;9.174;2023-04-25T09:14:51;8.68;;;5.68;;
48743;SDS011;34538;48.836;9.174;2023-04-25T09:17:43;10.35;;;6.13;;
48743;SDS011;34538;48.836;9.174;2023-04-25T09:20:12;9.30;;;5.55;;
48743;SDS011;34538;48.836;9.174;2023-04-25T09:22:40;8.75;;;5.20;;
48743;SDS011;34538;48.836;9.174;2023-04-25T09:25:08;8.40;;;5.75;;
48743;SDS011;34538;48.836;9.174;2023-04-25T09:27:48;10.02;;;5.20;;
48743;SDS011;34538;48.836;9.174;2023-04-25T09:30:29;7.15;;;4.90;;
48743;SDS011;34538;48.836;9.174;2023-04-25T09:33:09;9.90;;;5.85;;
48743;SDS011;34538;48.836;9.174;2023-04-25T09:35:41;6.38;;;4.60;;
48743;SDS011;34538;48.836;9.174;2023-04-25T09:38:18;4.63;;;3.33;;
48743;SDS011;34538;48.836;9.174;2023-04-25T09:41:07;6.97;;;4.22;;
48743;SDS011;34538;48.836;9.174;2023-04-25T09:43:38;6.05;;;4.18;;
48743;SDS011;34538;48.836;9.174;2023-04-25T09:46:09;8.23;;;4.43;;
48743;SDS011;34538;48.836;9.174;2023-04-25T09:48:41;8.88;;;4.63;;
48743;SDS011;34538;48.836;9.174;2023-04-25T09:51:17;8.15;;;4.95;;
48743;SDS011;34538;48.836;9.174;2023-04-25T09:53:45;9.48;;;5.70;;
48743;SDS011;34538;48.836;9.174;2023-04-25T09:56:23;8.95;;;6.03;;
48743;SDS011;34538;48.836;9.174;2023-04-25T09:58:56;7.97;;;4.93;;
48743;SDS011;34538;48.836;9.174;2023-04-25T10:01:25;8.07;;;5.13;;
48743;SDS011;34538;48.836;9.174;2023-04-25T10:04:06;9.07;;;5.15;;
48743;SDS011;34538;48.836;9.174;2023-04-25T10:06:51;9.38;;;5.35;;
48743;SDS011;34538;48.836;9.174;2023-04-25T10:09:20;10.60;;;5.85;;
48743;SDS011;34538;48.836;9.174;2023-04-25T10:11:49;8.00;;;5.15;;
48743;SDS011;34538;48.836;9.174;2023-04-25T10:14:17;10.07;;;4.70;;
48743;SDS011;34538;48.836;9.174;2023-04-25T10:16:48;7.38;;;4.50;;
48743;SDS011;34538;48.836;9.174;2023-04-25T10:19:30;6.90;;;4.10;;
48743;SDS011;34538;48.836;9.174;2023-04-25T10:22:00;6.95;;;4.20;;
48743;SDS011;34538;48.836;9.174;2023-04-25T10:24:32;6.25;;;3.88;;
48743;SDS011;34538;48.836;9.174;2023-04-25T10:26:59;4.93;;;3.53;;
48743;SDS011;34538;48.836;9.174;2023-04-25T10:29:27;6.25;;;3.22;;
48743;SDS011;34538;48.836;9.174;2023-04-25T10:31:55;3.88;;;2.05;;
48743;SDS011;34538;48.836;9.174;2023-04-25T10:34:24;4.53;;;2.97;;
48743;SDS011;34538;48.836;9.174;2023-04-25T10:37:03;5.93;;;3.22;;
48743;SDS011;34538;48.836;9.174;2023-04-25T10:39:30;6.95;;;3.72;;
48743;SDS011;34538;48.836;9.174;2023-04-25T10:41:58;7.07;;;4.35;;
48743;SDS011;34538;48.836;9.174;2023-04-25T10:44:27;6.85;;;3.78;;
48743;SDS011;34538;48.836;9.174;2023-04-25T10:46:57;7.68;;;4.07;;
48743;SDS011;34538;48.836;9.174;2023-04-25T10:49:28;7.82;;;4.03;;
48743;SDS011;34538;48.836;9.174;2023-04-25T10:54:55;8.15;;;4.10;;
48743;SDS011;34538;48.836;9.174;2023-04-25T10:57:26;8.85;;;4.68;;
48743;SDS011;34538;48.836;9.174;2023-04-25T11:00:06;6.50;;;3.83;;
48743;SDS011;34538;48.836;9.174;2023-04-25T11:02:55;8.32;;;3.85;;
48743;SDS011;34538;48.836;9.174;2023-04-25T11:05:27;6.65;;;3.80;;
48743;SDS011;34538;48.836;9.174;2023-04-25T11:07:58;8.10;;;4.35;;
48743;SDS011;34538;48.836;9.174;2023-04-25T11:10:25;6.78;;;4.30;;
48743;SDS011;34538;48.836;9.174;2023-04-25T11:12:53;7.05;;;4.50;;
48743;SDS011;34538;48.836;9.174;2023-04-25T11:15:20;9.18;;;4.85;;
48743;SDS011;34538;48.836;9.174;2023-04-25T11:17:47;7.88;;;4.85;;
48743;SDS011;34538;48.836;9.174;2023-04-25T11:20:15;9.02;;;4.63;;
48743;SDS011;34538;48.836;9.174;2023-04-25T11:22:43;7.18;;;4.63;;
48743;SDS011;34538;48.836;9.174;2023-04-25T11:25:11;8.88;;;4.32;;
48743;SDS011;34538;48.836;9.174;2023-04-25T11:27:48;5.43;;;3.33;;
48743;SDS011;34538;48.836;9.174;2023-04-25T11:30:16;5.78;;;3.58;;
48743;SDS011;34538;48.836;9.174;2023-04-25T11:32:43;6.03;;;4.00;;
48743;SDS011;34538;48.836;9.174;2023-04-25T11:35:10;5.50;;;3.35;;
48743;SDS011;34538;48.836;9.174;2023-04-25T11:37:39;7.10;;;3.45;;
48743;SDS011;34538;48.836;9.174;2023-04-25T11:40:07;4.68;;;2.95;;
48743;SDS011;34538;48.836;9.174;2023-04-25T11:42:36;5.22;;;3.20;;
48743;SDS011;34538;48.836;9.174;2023-04-25T11:45:04;5.43;;;3.40;;
48743;SDS011;34538;48.836;9.174;2023-04-25T11:47:31;7.65;;;3.63;;
48743;SDS011;34538;48.836;9.174;2023-04-25T11:49:59;7.15;;;3.08;;
48743;SDS011;34538;48.836;9.174;2023-04-25T11:52:35;6.15;;;3.72;;
48743;SDS011;34538;48.836;9.174;2023-04-25T11:55:05;7.72;;;3.97;;
48743;SDS011;34538;48.836;9.174;2023-04-25T11:57:33;6.40;;;4.13;;
48743;SDS011;34538;48.836;9.174;2023-04-25T12:00:07;6.57;;;4.25;;
48743;SDS011;34538;48.836;9.174;2023-04-25T12:02:40;7.03;;;4.43;;
48743;SDS011;34538;48.836;9.174;2023-04-25T12:05:07;6.28;;;3.58;;
48743;SDS011;34538;48.836;9.174;2023-04-25T12:07:35;6.65;;;4.03;;
48743;SDS011;34538;48.836;9.174;2023-04-25T12:10:07;6.43;;;3.70;;
48743;SDS011;34538;48.836;9.174;2023-04-25T12:12:36;5.82;;;3.83;;
48743;SDS011;34538;48.836;9.174;2023-04-25T12:15:10;9.73;;;4.38;;
48743;SDS011;34538;48.836;9.174;2023-04-25T12:17:40;6.88;;;4.22;;
48743;SDS011;34538;48.836;9.174;2023-04-25T12:20:09;8.40;;;4.57;;
48743;SDS011;34538;48.836;9.174;2023-04-25T12:22:37;8.43;;;4.72;;
48743;SDS011;34538;48.836;9.174;2023-04-25T12:25:04;7.82;;;5.03;;
48743;SDS011;34538;48.836;9.174;2023-04-25T12:27:35;9.32;;;4.65;;
48743;SDS011;34538;48.836;9.174;2023-04-25T12:30:03;11.75;;;6.35;;
48743;SDS011;34538;48.836;9.174;2023-04-25T12:32:32;12.30;;;6.18;;
48743;SDS011;34538;48.836;9.174;2023-04-25T12:34:59;10.07;;;5.20;;
48743;SDS011;34538;48.836;9.174;2023-04-25T12:37:26;9.23;;;5.47;;
48743;SDS011;34538;48.836;9.174;2023-04-25T12:39:55;10.32;;;5.80;;
48743;SDS011;34538;48.836;9.174;2023-04-25T12:42:21;12.57;;;5.88;;
48743;SDS011;34538;48.836;9.174;2023-04-25T12:44:50;9.63;;;5.22;;
48743;SDS011;34538;48.836;9.174;2023-04-25T12:47:17;11.32;;;6.32;;
48743;SDS011;34538;48.836;9.174;2023-04-25T12:49:43;8.88;;;5.40;;
48743;SDS011;34538;48.836;9.174;2023-04-25T12:52:10;13.20;;;6.18;;
48743;SDS011;34538;48.836;9.174;2023-04-25T12:54:37;9.32;;;5.60;;
48743;SDS011;34538;48.836;9.174;2023-04-25T12:57:04;9.73;;;5.75;;
48743;SDS011;34538;48.836;9.174;2023-04-25T12:59:31;12.43;;;5.68;;
48743;SDS011;34538;48.836;9.174;2023-04-25T13:01:59;8.25;;;5.15;;
48743;SDS011;34538;48.836;9.174;2023-04-25T13:04:26;8.38;;;4.90;;
48743;SDS011;34538;48.836;9.174;2023-04-25T13:06:53;8.57;;;5.00;;
48743;SDS011;34538;48.836;9.174;2023-04-25T13:09:20;8.15;;;4.93;;
48743;SDS011;34538;48.836;9.174;2023-04-25T13:11:47;9.93;;;5.32;;
48743;SDS011;34538;48.836;9.174;2023-04-25T13:14:14;8.43;;;4.78;;
48743;SDS011;34538;48.836;9.174;2023-04-25T13:16:41;10.75;;;5.13;;
48743;SDS011;34538;48.836;9.174;2023-04-25T13:19:09;7.93;;;5.10;;
48743;SDS011;34538;48.836;9.174;2023-04-25T13:21:37;10.32;;;5.50;;
48743;SDS011;34538;48.836;9.174;2023-04-25T13:24:04;11.48;;;5.70;;
48743;SDS011;34538;48.836;9.174;2023-04-25T13:26:31;10.65;;;5.45;;
48743;SDS011;34538;48.836;9.174;2023-04-25T13:28:58;10.05;;;5.88;;
48743;SDS011;34538;48.836;9.174;2023-04-25T13:31:28;8.98;;;5.80;;
48743;SDS011;34538;48.836;9.174;2023-04-25T13:33:55;11.77;;;5.97;;
48743;SDS011;34538;48.836;9.174;2023-04-25T13:36:23;11.70;;;7.25;;
48743;SDS011;34538;48.836;9.174;2023-04-25T13:38:51;10.00;;;6.65;;
48743;SDS011;34538;48.836;9.174;2023-04-25T13:41:17;14.05;;;7.93;;
48743;SDS011;34538;48.836;9.174;2023-04-25T13:43:45;12.80;;;7.63;;
48743;SDS011;34538;48.836;9.174;2023-04-25T13:46:13;17.45;;;8.82;;
48743;SDS011;34538;48.836;9.174;2023-04-25T13:48:41;12.82;;;8.23;;
48743;SDS011;34538;48.836;9.174;2023-04-25T13:51:13;11.65;;;8.13;;
48743;SDS011;34538;48.836;9.174;2023-04-25T13:53:43;11.32;;;7.07;;
48743;SDS011;34538;48.836;9.174;2023-04-25T13:56:10;11.50;;;7.43;;
48743;SDS011;34538;48.836;9.174;2023-04-25T13:58:37;10.73;;;6.72;;
48743;SDS011;34538;48.836;9.174;2023-04-25T14:01:04;12.00;;;6.80;;
48743;SDS011;34538;48.836;9.174;2023-04-25T14:03:31;8.75;;;5.65;;
48743;SDS011;34538;48.836;9.174;2023-04-25T14:05:58;12.85;;;6.30;;
48743;SDS011;34538;48.836;9.174;2023-04-25T14:08:25;10.68;;;6.20;;
48743;SDS011;34538;48.836;9.174;2023-04-25T14:10:55;12.23;;;5.80;;
48743;SDS011;34538;48.836;9.174;2023-04-25T14:13:21;13.07;;;7.63;;
48743;SDS011;34538;48.836;9.174;2023-04-25T14:15:50;8.27;;;4.65;;
48743;SDS011;34538;48.836;9.174;2023-04-25T14:18:18;7.80;;;4.88;;
48743;SDS011;34538;48.836;9.174;2023-04-25T14:20:45;9.07;;;5.80;;
48743;SDS011;34538;48.836;9.174;2023-04-25T14:23:11;7.05;;;4.90;;
48743;SDS011;34538;48.836;9.174;2023-04-25T14:25:39;8.18;;;5.10;;
48743;SDS011;34538;48.836;9.174;2023-04-25T14:28:08;8.23;;;4.93;;
48743;SDS011;34538;48.836;9.174;2023-04-25T14:30:36;7.32;;;4.90;;
48743;SDS011;34538;48.836;9.174;2023-04-25T14:33:03;8.27;;;5.05;;
48743;SDS011;34538;48.836;9.174;2023-04-25T14:35:30;7.80;;;4.80;;
48743;SDS011;34538;48.836;9.174;2023-04-25T14:37:57;10.43;;;5.05;;
48743;SDS011;34538;48.836;9.174;2023-04-25T14:40:24;7.85;;;4.45;;
48743;SDS011;34538;48.836;9.174;2023-04-25T14:42:51;6.90;;;5.15;;
48743;SDS011;34538;48.836;9.174;2023-04-25T14:45:19;9.70;;;5.50;;
48743;SDS011;34538;48.836;9.174;2023-04-25T14:47:46;10.20;;;4.82;;
48743;SDS011;34538;48.836;9.174;2023-04-25T14:50:13;7.35;;;4.78;;
48743;SDS011;34538;48.836;9.174;2023-04-25T14:52:40;7.63;;;4.78;;
48743;SDS011;34538;48.836;9.174;2023-04-25T14:55:08;7.93;;;4.20;;
48743;SDS011;34538;48.836;9.174;2023-04-25T14:57:35;7.65;;;4.72;;
48743;SDS011;34538;48.836;9.174;2023-04-25T15:00:02;10.30;;;4.95;;
48743;SDS011;34538;48.836;9.174;2023-04-25T15:02:35;8.85;;;5.57;;
48743;SDS011;34538;48.836;9.174;2023-04-25T15:05:02;8.05;;;4.85;;
48743;SDS011;34538;48.836;9.174;2023-04-25T15:07:30;7.28;;;4.65;;
48743;SDS011;34538;48.836;9.174;2023-04-25T15:09:56;11.20;;;4.40;;
48743;SDS011;34538;48.836;9.174;2023-04-25T15:12:23;5.75;;;3.78;;